Palm Springs International, CA

1:30 PM PDT on August 20, 2014 (GMT -0700)
Big Bear City | Change Station
CLOSE
Current Station
Airport
Location: Big Bear City,
Elevation: 6752 ft
Nearby Weather Stations
Active Advisory: Flash Flood Watch Active Notice: Local Storm Report

Elev 6752 ft 34.26 °N, 116.86 °W | Updated 15 minutes ago

Clear
Clear
64 °F
Feels Like 64 °F
N
8
Wind Variable Wind from South
Gusts 17 mph

Today
High -- | Low -- °F
--% Chance of Precip.
Yesterday
High -- | Low -- °F
Precip. -- in
6:11 AM 7:26 PM
Waning Crescent, 19% visible
Pressure 30.20 in
Visibility 10.0 miles
Clouds Clear
Dew Point 34 °F
Humidity 32%
Rainfall 0.00 in
Snow Depth Not available.
UV 12 out of 12
Pollen 5.00 out of 12
Ozone Good
Flu Activity Not available.
METAR KL35 202015Z AUTO 17007G15KT 084V354 10SM CLR 18/01 A3020 RMK AO2

More Conditions Fewer Conditions

Pressure 30.20 in
Visibility 10.0 miles
Clouds Clear
Dew Point 34 °F
Humidity 32%
Rainfall 0.00 in
Snow Depth Not available.
UV 12 out of 12
Pollen 5.00 out of 12
Ozone Good
Flu Activity Not available.
METAR KL35 202015Z AUTO 17007G15KT 084V354 10SM CLR 18/01 A3020 RMK AO2

More Conditions Fewer Conditions

10-Day Weather Forecast

Almanac

Astronomy

Aug. 20, 2014 Rise Set
Actual Time 6:11 AM PDT 7:26 PM PDT
Civil Twilight 5:45 AM PDT 7:52 PM PDT
Nautical Twilight 5:14 AM PDT 8:23 PM PDT
Astronomical Twilight 4:41 AM PDT 8:55 PM PDT
Moon 2:00 AM PDT 4:10 PM PDT
Length of Visible Light 14h 07m
Length of Day
13h 15m
Tomorrow will be 1m 54s shorter.
Waning Crescent, 19% of the Moon is Illuminated
Today
Waning Crescent
Aug 25
New
Sep 2
First Quarter
Sep 8
Full
Sep 15
Last Quarter

Today's Extremes

State Highs State Lows

Community

WunderPhotos

Upload Photos

1,745,750 photos uploaded!

WunderBlogs® & News

By Dr. Jeff Masters
Director of Meteorology, Weather Underground
By Kari Strenfel
Meteorologist, Weather Underground
By Christopher C. Burt
Weather Historian, Weather Underground
August 20, 2014
August 20, 2014
August 20, 2014

Nearby

Air Quality

  Air Quality AQ Index Pollutant
Yesterday Good
OZONE
Yesterday Good
PM10
Current Good
OZONE
Thursday Good
PM10
Thursday Moderate
OZONE
Thursday Good
CO
Thursday Good
NO2

Snow Depth

Station Depth Elevation
Leavitt Meadows 0 in 7200 ft
Summit Meadow 0 in 9122 ft
CSS Lab 1 in 6900 ft
Adin Mountain 0 in 6200 ft

Earthquake Activity

City Distance Mag. Time & Date
Yucca Valley, California 32 miles 3.8 8:57 PM PDT
2014-08-14
Alberto Oviedo Mota, Mexico 141 miles 2.8 3:03 PM PDT
2014-08-14
Salton City, California 52 miles 2.6 6:58 AM PDT
2014-08-14
Minimum magnitude displayed is 2.5.

Coastal Water Temperatures

Place Temperature
No Stations Reporting

Nearby Weather Stations